createdAt,value
2022-09-12T00:01:15.269Z,100419.66
2022-09-12T00:03:43.913Z,100423.81
2022-09-12T00:06:14.220Z,100419.03
2022-09-12T00:08:44.128Z,100419.03
2022-09-12T00:11:19.278Z,100419.13
2022-09-12T00:13:52.087Z,100411.28
2022-09-12T00:16:22.816Z,100412.63
2022-09-12T00:18:51.470Z,100410.44
2022-09-12T00:21:20.751Z,100406.59
2022-09-12T00:23:49.023Z,100399.31
2022-09-12T00:26:17.778Z,100395.88
2022-09-12T00:28:46.786Z,100395.81
2022-09-12T00:31:18.789Z,100394.75
2022-09-12T00:33:47.499Z,100401.00
2022-09-12T00:36:17.764Z,100386.75
2022-09-12T00:38:49.218Z,100380.31
2022-09-12T00:41:20.258Z,100383.19
2022-09-12T00:43:49.978Z,100391.84
2022-09-12T00:46:27.915Z,100402.56
2022-09-12T00:48:59.729Z,100398.97
2022-09-12T00:51:28.931Z,100392.94
2022-09-12T00:53:57.337Z,100396.31
2022-09-12T00:56:25.914Z,100386.06
2022-09-12T00:58:57.533Z,100384.66
2022-09-12T01:01:31.719Z,100391.88
2022-09-12T01:04:00.758Z,100386.28
2022-09-12T01:06:30.610Z,100380.16
2022-09-12T01:09:03.496Z,100389.13
2022-09-12T01:11:32.561Z,100384.66
2022-09-12T01:14:00.999Z,100383.09
2022-09-12T01:16:30.812Z,100388.13
2022-09-12T01:19:07.463Z,100383.50
2022-09-12T01:21:38.664Z,100379.94
2022-09-12T01:24:44.918Z,100380.53
2022-09-12T01:27:24.185Z,100377.78
2022-09-12T01:30:22.132Z,100373.88
2022-09-12T01:33:01.991Z,100378.91
2022-09-12T01:35:34.398Z,100379.78
2022-09-12T01:38:13.273Z,100374.06
2022-09-12T01:40:46.451Z,100363.81
2022-09-12T01:43:21.362Z,100368.63
2022-09-12T01:45:55.583Z,100368.06
2022-09-12T01:48:26.513Z,100373.16
2022-09-12T01:51:00.517Z,100373.75
2022-09-12T01:53:31.379Z,100371.00
2022-09-12T01:56:09.849Z,100374.03
2022-09-12T01:58:42.088Z,100368.19
2022-09-12T02:01:12.825Z,100382.66
2022-09-12T02:03:45.936Z,100379.88
2022-09-12T02:06:18.574Z,100379.91
2022-09-12T02:08:49.834Z,100377.97
2022-09-12T02:11:18.049Z,100383.31
2022-09-12T02:13:49.712Z,100381.38
2022-09-12T02:16:20.333Z,100377.25
2022-09-12T02:18:54.583Z,100382.25
2022-09-12T02:21:24.248Z,100378.91
2022-09-12T02:23:56.674Z,100378.31
2022-09-12T02:26:29.356Z,100378.84
2022-09-12T02:28:58.807Z,100371.03
2022-09-12T02:31:30.247Z,100358.00
2022-09-12T02:34:10.769Z,100373.84
2022-09-12T02:36:50.117Z,100375.22
2022-09-12T02:39:21.538Z,100372.50
2022-09-12T02:41:51.779Z,100365.50
2022-09-12T02:44:20.106Z,100377.50
2022-09-12T02:46:50.366Z,100378.94
2022-09-12T02:49:20.042Z,100382.28
2022-09-12T02:51:49.230Z,100381.47
2022-09-12T02:54:19.163Z,100376.47
2022-09-12T02:56:47.547Z,100386.22
2022-09-12T02:59:18.062Z,100379.56
2022-09-12T03:02:05.643Z,100380.13
2022-09-12T03:04:48.321Z,100384.06
2022-09-12T03:07:22.002Z,100376.78
2022-09-12T03:09:55.635Z,100377.88
2022-09-12T03:12:34.003Z,100380.66
2022-09-12T03:15:14.325Z,100379.81
2022-09-12T03:17:50.871Z,100374.25
2022-09-12T03:20:24.418Z,100378.41
2022-09-12T03:22:55.964Z,100371.69
2022-09-12T03:25:28.481Z,100367.19
2022-09-12T03:28:00.210Z,100368.84
2022-09-12T03:30:28.915Z,100367.78
2022-09-12T03:32:57.100Z,100365.00
2022-09-12T03:35:27.138Z,100366.13
2022-09-12T03:37:55.233Z,100364.78
2022-09-12T03:40:23.557Z,100372.81
2022-09-12T03:42:51.869Z,100363.94
2022-09-12T03:45:19.940Z,100380.06
2022-09-12T03:47:50.117Z,100374.72
2022-09-12T03:50:18.717Z,100363.63
2022-09-12T03:52:48.278Z,100367.84
2022-09-12T03:55:16.551Z,100373.94
2022-09-12T03:57:44.891Z,100371.50
2022-09-12T04:00:19.074Z,100365.09
2022-09-12T04:02:48.522Z,100367.59
2022-09-12T04:05:16.767Z,100353.13
2022-09-12T04:07:44.894Z,100370.06
2022-09-12T04:10:16.209Z,100368.41
2022-09-12T04:12:44.769Z,100378.97
2022-09-12T04:15:13.536Z,100372.63
2022-09-12T04:17:41.832Z,100380.22
2022-09-12T04:20:10.694Z,100377.13
2022-09-12T04:22:38.862Z,100366.81
2022-09-12T04:25:08.487Z,100356.84
2022-09-12T04:27:38.063Z,100370.78
2022-09-12T04:30:07.266Z,100349.66
2022-09-12T04:32:35.618Z,100372.38
2022-09-12T04:35:03.830Z,100365.13
2022-09-12T04:37:32.011Z,100368.47
2022-09-12T04:40:00.495Z,100365.13
2022-09-12T04:42:28.727Z,100374.56
2022-09-12T04:44:58.295Z,100371.72
2022-09-12T04:47:26.626Z,100363.94
2022-09-12T04:49:54.752Z,100371.47
2022-09-12T04:52:23.009Z,100374.00
2022-09-12T04:54:51.305Z,100364.25
2022-09-12T04:57:19.448Z,100368.97
2022-09-12T04:59:47.563Z,100369.16
2022-09-12T05:02:17.262Z,100367.78
2022-09-12T05:04:47.008Z,100368.28
2022-09-12T05:07:15.207Z,100362.72
2022-09-12T05:09:45.071Z,100364.91
2022-09-12T05:12:14.347Z,100356.53
2022-09-12T05:14:44.390Z,100356.53
2022-09-12T05:17:12.642Z,100362.09
2022-09-12T05:19:43.432Z,100358.19
2022-09-12T05:22:11.588Z,100360.94
2022-09-12T05:24:47.259Z,100360.31
2022-09-12T05:27:18.046Z,100367.00
2022-09-12T05:29:46.417Z,100365.81
2022-09-12T05:32:14.593Z,100369.66
2022-09-12T05:34:44.129Z,100361.88
2022-09-12T05:37:13.275Z,100361.84
2022-09-12T05:39:41.540Z,100359.31
2022-09-12T05:42:10.018Z,100359.59
2022-09-12T05:44:38.271Z,100356.25
2022-09-12T05:47:06.723Z,100359.00
2022-09-12T05:49:36.560Z,100358.94
2022-09-12T05:52:06.547Z,100366.13
2022-09-12T05:54:34.746Z,100358.56
2022-09-12T05:57:02.977Z,100360.16
2022-09-12T05:59:31.243Z,100363.47
2022-09-12T06:01:59.470Z,100359.84
2022-09-12T06:04:28.190Z,100356.31
2022-09-12T06:06:56.780Z,100357.66
2022-09-12T06:09:26.281Z,100355.72
2022-09-12T06:11:57.176Z,100349.78
2022-09-12T06:14:27.109Z,100358.09
2022-09-12T06:16:55.269Z,100353.63
2022-09-12T06:19:25.347Z,100359.28
2022-09-12T06:21:53.522Z,100354.03
2022-09-12T06:24:22.376Z,100364.97
2022-09-12T06:26:54.805Z,100349.41
2022-09-12T06:29:23.168Z,100352.72
2022-09-12T06:31:51.335Z,100359.63
2022-09-12T06:34:20.214Z,100370.06
2022-09-12T06:36:50.913Z,100367.84
2022-09-12T06:39:20.766Z,100350.34
2022-09-12T06:41:49.563Z,100371.13
2022-09-12T06:44:20.356Z,100366.88
2022-09-12T06:46:48.969Z,100365.94
2022-09-12T06:49:19.268Z,100361.19
2022-09-12T06:51:47.485Z,100371.09
2022-09-12T06:54:17.064Z,100375.56
2022-09-12T06:56:45.874Z,100373.06
2022-09-12T06:59:14.125Z,100375.56
2022-09-12T07:01:43.856Z,100367.97
2022-09-12T07:04:12.062Z,100375.81
2022-09-12T07:06:41.528Z,100373.28
2022-09-12T07:09:11.755Z,100375.72
2022-09-12T07:11:41.294Z,100378.44
2022-09-12T07:14:11.527Z,100371.22
2022-09-12T07:16:39.702Z,100380.59
2022-09-12T07:19:09.967Z,100382.84
2022-09-12T07:21:40.536Z,100373.94
2022-09-12T07:24:10.502Z,100380.22
2022-09-12T07:26:40.117Z,100378.72
2022-09-12T07:29:34.768Z,100371.94
2022-09-12T07:31:57.759Z,100373.84
2022-09-12T07:34:27.393Z,100381.38
2022-09-12T07:36:55.733Z,100374.13
2022-09-12T07:39:24.039Z,100388.03
2022-09-12T07:41:52.219Z,100383.06
2022-09-12T07:44:24.905Z,100384.13
2022-09-12T07:46:54.632Z,100382.22
2022-09-12T07:49:24.185Z,100371.34
2022-09-12T07:51:54.086Z,100372.78
2022-09-12T07:54:22.418Z,100378.97
2022-09-12T07:56:50.591Z,100376.75
2022-09-12T07:59:41.389Z,100378.00
2022-09-12T08:02:07.523Z,100388.66
2022-09-12T08:04:37.603Z,100382.00
2022-09-12T08:07:07.489Z,100378.38
2022-09-12T08:09:35.697Z,100380.31
2022-09-12T08:12:04.243Z,100382.38
2022-09-12T08:14:34.388Z,100379.81
2022-09-12T08:17:02.495Z,100371.50
2022-09-12T08:19:32.250Z,100364.19
2022-09-12T08:22:00.434Z,100377.31
2022-09-12T08:24:29.983Z,100377.78
2022-09-12T08:26:58.285Z,100375.00
2022-09-12T08:29:26.471Z,100381.72
2022-09-12T08:31:57.279Z,100381.09
2022-09-12T08:34:26.447Z,100377.25
2022-09-12T08:36:55.290Z,100376.13
2022-09-12T08:39:24.708Z,100373.84
2022-09-12T08:41:59.923Z,100379.22
2022-09-12T08:44:51.158Z,100376.75
2022-09-12T08:47:23.370Z,100346.75
2022-09-12T08:50:02.310Z,100368.75
2022-09-12T08:52:37.536Z,100361.69
2022-09-12T08:55:07.599Z,100366.47
2022-09-12T08:57:37.105Z,100372.03
2022-09-12T09:00:08.210Z,100365.19
2022-09-12T09:03:07.534Z,100366.47
2022-09-12T09:05:47.402Z,100363.00
2022-09-12T09:08:23.274Z,100365.72
2022-09-12T09:10:55.426Z,100361.50
2022-09-12T09:13:52.345Z,100358.53
2022-09-12T09:16:27.505Z,100357.53
2022-09-12T09:19:01.481Z,100359.19
2022-09-12T09:21:34.086Z,100358.84
2022-09-12T09:24:05.057Z,100364.72
2022-09-12T09:26:42.340Z,100358.63
2022-09-12T09:29:18.861Z,100358.44
2022-09-12T09:31:50.397Z,100361.06
2022-09-12T09:34:21.955Z,100365.19
2022-09-12T09:36:54.536Z,100367.50
2022-09-12T09:39:31.786Z,100380.31
2022-09-12T09:42:13.092Z,100371.34
2022-09-12T09:44:43.933Z,100368.97
2022-09-12T09:47:12.496Z,100379.31
2022-09-12T09:49:43.382Z,100379.56
2022-09-12T09:52:14.617Z,100375.94
2022-09-12T09:54:46.135Z,100378.03
2022-09-12T09:57:46.715Z,100381.13
2022-09-12T10:00:31.899Z,100373.28
2022-09-12T10:03:23.843Z,100367.34
2022-09-12T10:05:53.994Z,100369.84
2022-09-12T10:08:24.161Z,100366.94
2022-09-12T10:10:57.191Z,100377.31
2022-09-12T10:13:29.551Z,100368.34
2022-09-12T10:16:01.646Z,100368.16
2022-09-12T10:18:41.881Z,100365.47
2022-09-12T10:21:28.246Z,100357.63
2022-09-12T10:24:03.324Z,100364.84
2022-09-12T10:26:37.464Z,100370.06
2022-09-12T10:29:12.669Z,100368.59
2022-09-12T10:31:48.957Z,100363.50
2022-09-12T10:34:27.960Z,100359.97
2022-09-12T10:37:01.506Z,100366.81
2022-09-12T10:39:31.143Z,100367.34
2022-09-12T10:41:59.363Z,100364.44
2022-09-12T10:44:29.861Z,100373.56
2022-09-12T10:47:00.167Z,100368.09
2022-09-12T10:49:31.569Z,100369.63
2022-09-12T10:52:18.469Z,100387.91
2022-09-12T10:54:46.856Z,100378.97
2022-09-12T10:57:34.044Z,100366.72
2022-09-12T11:00:17.305Z,100353.03
2022-09-12T11:02:52.392Z,100363.81
2022-09-12T11:05:42.041Z,100368.13
2022-09-12T11:08:22.010Z,100359.25
2022-09-12T11:10:57.245Z,100364.84
2022-09-12T11:13:50.422Z,100360.41
2022-09-12T11:16:25.915Z,100359.25
2022-09-12T11:19:05.656Z,100362.97
2022-09-12T11:21:46.386Z,100350.34
2022-09-12T11:24:34.935Z,100351.13
2022-09-12T11:27:12.250Z,100358.13
2022-09-12T11:29:49.875Z,100350.75
2022-09-12T11:32:34.463Z,100357.16
2022-09-12T11:35:08.320Z,100345.72
2022-09-12T11:37:47.312Z,100358.47
2022-09-12T11:40:27.912Z,100346.97
2022-09-12T11:43:01.091Z,100346.94
2022-09-12T11:45:31.427Z,100350.88
2022-09-12T11:48:05.495Z,100346.50
2022-09-12T11:50:34.963Z,100348.47
2022-09-12T11:53:11.235Z,100341.56
2022-09-12T11:55:48.149Z,100340.81
2022-09-12T11:58:16.762Z,100337.13
2022-09-12T12:00:48.381Z,100334.88
2022-09-12T12:03:25.323Z,100331.53
2022-09-12T12:05:57.222Z,100325.91
2022-09-12T12:08:27.759Z,100332.78
2022-09-12T12:10:57.573Z,100315.97
2022-09-12T12:13:29.994Z,100322.06
2022-09-12T12:16:00.951Z,100321.56
2022-09-12T12:18:30.230Z,100313.25
2022-09-12T12:21:21.247Z,100324.16
2022-09-12T12:24:05.069Z,100315.53
2022-09-12T12:27:00.286Z,100307.06
2022-09-12T12:29:43.678Z,100312.72
2022-09-12T12:32:30.637Z,100311.16
2022-09-12T12:35:50.480Z,100299.44
2022-09-12T12:38:30.717Z,100294.75
2022-09-12T12:41:34.510Z,100295.47
2022-09-12T12:44:41.668Z,100293.19
2022-09-12T12:47:17.383Z,100304.19
2022-09-12T12:49:52.916Z,100299.94
2022-09-12T12:52:21.502Z,100302.44
2022-09-12T12:55:01.925Z,100296.34
2022-09-12T12:57:37.110Z,100288.41
2022-09-12T13:00:09.009Z,100293.03
2022-09-12T13:02:40.100Z,100293.03
2022-09-12T13:05:19.309Z,100292.84
2022-09-12T13:07:48.374Z,100300.88
2022-09-12T13:10:24.446Z,100295.34
2022-09-12T13:12:53.900Z,100297.00
2022-09-12T13:15:52.126Z,100287.31
2022-09-12T13:18:26.478Z,100283.00
2022-09-12T13:20:59.530Z,100285.66
2022-09-12T13:23:29.984Z,100290.63
2022-09-12T13:26:00.661Z,100284.19
2022-09-12T13:28:29.960Z,100287.81
2022-09-12T13:31:01.467Z,100284.66
2022-09-12T13:33:36.259Z,100287.47
2022-09-12T13:36:43.807Z,100282.53
2022-09-12T13:39:18.916Z,100285.28
2022-09-12T13:42:20.524Z,100280.13
2022-09-12T13:44:52.426Z,100283.59
2022-09-12T13:47:27.424Z,100279.19
2022-09-12T13:49:56.158Z,100279.47
2022-09-12T13:52:27.543Z,100280.63
2022-09-12T13:54:57.125Z,100277.50
2022-09-12T13:57:33.848Z,100278.53
2022-09-12T14:00:07.605Z,100276.72
2022-09-12T14:02:38.035Z,100281.19
2022-09-12T14:05:14.037Z,100281.69
2022-09-12T14:07:56.419Z,100268.19
2022-09-12T14:10:32.076Z,100286.56
2022-09-12T14:13:03.024Z,100282.22
2022-09-12T14:15:35.659Z,100275.47
2022-09-12T14:18:05.546Z,100276.47
2022-09-12T14:20:38.046Z,100271.94
2022-09-12T14:23:12.513Z,100272.66
2022-09-12T14:25:42.135Z,100272.03
2022-09-12T14:28:13.445Z,100281.09
2022-09-12T14:30:43.195Z,100272.66
2022-09-12T14:33:20.910Z,100267.44
2022-09-12T14:35:50.423Z,100270.75
2022-09-12T14:38:26.099Z,100268.97
2022-09-12T14:41:01.051Z,100269.63
2022-09-12T14:43:30.640Z,100276.72
2022-09-12T14:46:02.802Z,100275.06
2022-09-12T14:48:33.122Z,100269.16
2022-09-12T14:51:01.475Z,100271.31
2022-09-12T14:53:34.596Z,100282.69
2022-09-12T14:56:10.485Z,100279.22
2022-09-12T14:58:39.130Z,100275.06
2022-09-12T15:01:32.642Z,100281.16
2022-09-12T15:04:01.034Z,100284.06
2022-09-12T15:06:30.753Z,100285.34
2022-09-12T15:08:59.867Z,100285.69
2022-09-12T15:11:28.157Z,100279.19
2022-09-12T15:13:56.292Z,100284.91
2022-09-12T15:16:24.459Z,100275.25
2022-09-12T15:18:54.528Z,100285.66
2022-09-12T15:21:23.073Z,100281.50
2022-09-12T15:23:52.410Z,100289.22
2022-09-12T15:26:23.134Z,100293.78
2022-09-12T15:28:52.275Z,100292.88
2022-09-12T15:31:25.436Z,100288.22
2022-09-12T15:33:56.035Z,100300.25
2022-09-12T15:36:25.845Z,100295.91
2022-09-12T15:38:56.068Z,100296.56
2022-09-12T15:41:26.976Z,100298.31
2022-09-12T15:43:55.494Z,100296.97
2022-09-12T15:46:24.036Z,100294.06
2022-09-12T15:48:55.918Z,100301.97
2022-09-12T15:51:24.241Z,100293.78
2022-09-12T15:53:53.139Z,100302.72
2022-09-12T15:56:27.476Z,100314.03
2022-09-12T15:58:59.349Z,100303.47
2022-09-12T16:01:28.883Z,100311.34
2022-09-12T16:03:59.072Z,100312.59
2022-09-12T16:06:27.997Z,100315.16
2022-09-12T16:08:56.552Z,100319.63
2022-09-12T16:11:26.488Z,100323.38
2022-09-12T16:13:55.604Z,100324.00
2022-09-12T16:16:24.085Z,100324.00
2022-09-12T16:18:52.317Z,100323.16
2022-09-12T16:21:23.058Z,100324.63
2022-09-12T16:23:53.089Z,100326.91
2022-09-12T16:26:21.350Z,100319.13
2022-09-12T16:28:49.896Z,100323.38
2022-09-12T16:31:18.217Z,100321.50
2022-09-12T16:33:46.519Z,100318.19
2022-09-12T16:36:16.659Z,100326.06
2022-09-12T16:38:47.691Z,100325.22
2022-09-12T16:41:16.919Z,100311.56
2022-09-12T16:43:45.638Z,100318.81
2022-09-12T16:46:16.154Z,100323.59
2022-09-12T16:48:49.549Z,100320.44
2022-09-12T16:51:21.916Z,100318.38
2022-09-12T16:53:51.898Z,100310.69
2022-09-12T16:56:20.404Z,100318.16
2022-09-12T16:58:49.182Z,100316.13
2022-09-12T17:01:19.405Z,100323.97
2022-09-12T17:03:47.688Z,100326.56
2022-09-12T17:06:17.298Z,100320.75
2022-09-12T17:08:47.501Z,100315.66
2022-09-12T17:11:18.754Z,100326.88
2022-09-12T17:14:06.091Z,100327.31
2022-09-12T17:16:36.196Z,100319.41
2022-09-12T17:19:07.318Z,100318.81
2022-09-12T17:21:36.674Z,100321.28
2022-09-12T17:24:05.321Z,100327.31
2022-09-12T17:26:34.872Z,100323.97
2022-09-12T17:29:03.443Z,100318.38
2022-09-12T17:31:32.110Z,100324.19
2022-09-12T17:34:01.142Z,100316.41
2022-09-12T17:36:32.130Z,100321.81
2022-09-12T17:39:00.573Z,100307.69
2022-09-12T17:41:32.353Z,100324.41
2022-09-12T17:44:03.657Z,100314.03
2022-09-12T17:46:35.247Z,100320.44
2022-09-12T17:49:04.865Z,100324.69
2022-09-12T17:51:35.377Z,100323.56
2022-09-12T17:54:05.618Z,100315.47
2022-09-12T17:56:35.751Z,100313.00
2022-09-12T17:59:06.704Z,100316.28
2022-09-12T18:01:52.431Z,100315.25
2022-09-12T18:04:21.158Z,100317.53
2022-09-12T18:06:49.770Z,100318.69
2022-09-12T18:09:19.776Z,100321.69
2022-09-12T18:11:49.164Z,100309.44
2022-09-12T18:14:19.396Z,100322.91
2022-09-12T18:16:49.229Z,100320.94
2022-09-12T18:19:17.834Z,100313.38
2022-09-12T18:21:46.976Z,100314.84
2022-09-12T18:24:15.763Z,100316.47
2022-09-12T18:26:45.029Z,100316.72
2022-09-12T18:29:16.994Z,100308.25
2022-09-12T18:31:47.980Z,100316.03
2022-09-12T18:34:17.332Z,100317.78
2022-09-12T18:36:46.971Z,100309.56
2022-09-12T18:39:15.247Z,100320.88
2022-09-12T18:41:43.788Z,100328.13
2022-09-12T18:44:12.779Z,100322.84
2022-09-12T18:46:43.042Z,100329.28
2022-09-12T18:49:12.992Z,100322.84
2022-09-12T18:51:42.004Z,100322.03
2022-09-12T18:54:14.855Z,100320.66
2022-09-12T18:56:45.976Z,100328.56
2022-09-12T18:59:15.425Z,100323.53
2022-09-12T19:01:44.476Z,100329.69
2022-09-12T19:04:16.859Z,100326.44
2022-09-12T19:06:46.307Z,100332.13
2022-09-12T19:09:16.464Z,100326.53
2022-09-12T19:11:49.670Z,100323.41
2022-09-12T19:14:18.033Z,100327.06
2022-09-12T19:16:47.313Z,100326.53
2022-09-12T19:19:16.839Z,100328.19
2022-09-12T19:21:45.289Z,100326.22
2022-09-12T19:24:14.489Z,100324.25
2022-09-12T19:26:42.771Z,100321.66
2022-09-12T19:29:14.132Z,100316.69
2022-09-12T19:31:42.499Z,100325.63
2022-09-12T19:34:12.233Z,100313.06
2022-09-12T19:36:46.694Z,100323.13
2022-09-12T19:39:16.389Z,100315.34
2022-09-12T19:41:44.897Z,100309.75
2022-09-12T19:44:13.071Z,100317.00
2022-09-12T19:46:41.929Z,100318.66
2022-09-12T19:49:12.100Z,100315.34
2022-09-12T19:51:41.936Z,100316.78
2022-09-12T19:54:10.338Z,100319.06
2022-09-12T19:56:38.638Z,100324.03
2022-09-12T19:59:06.779Z,100312.56
2022-09-12T20:01:37.233Z,100309.84
2022-09-12T20:04:07.033Z,100306.00
2022-09-12T20:06:35.319Z,100304.63
2022-09-12T20:09:05.199Z,100303.91
2022-09-12T20:11:33.614Z,100313.44
2022-09-12T20:14:01.836Z,100306.69
2022-09-12T20:16:30.335Z,100301.19
2022-09-12T20:19:02.651Z,100302.31
2022-09-12T20:21:35.890Z,100303.44
2022-09-12T20:24:07.102Z,100315.25
2022-09-12T20:26:35.746Z,100310.19
2022-09-12T20:29:04.847Z,100311.53
2022-09-12T20:31:33.769Z,100312.59
2022-09-12T20:34:02.345Z,100314.56
2022-09-12T20:36:30.557Z,100308.19
2022-09-12T20:39:01.481Z,100306.56
2022-09-12T20:41:33.014Z,100306.31
2022-09-12T20:44:01.185Z,100303.03
2022-09-12T20:46:30.027Z,100306.94
2022-09-12T20:48:58.924Z,100298.63
2022-09-12T20:51:29.831Z,100304.22
2022-09-12T20:53:58.853Z,100300.91
2022-09-12T20:56:28.069Z,100287.63
2022-09-12T20:59:06.524Z,100298.81
2022-09-12T21:01:35.016Z,100279.31
2022-09-12T21:04:04.027Z,100286.59
2022-09-12T21:06:32.712Z,100284.69
2022-09-12T21:09:00.928Z,100280.47
2022-09-12T21:11:29.709Z,100279.69
2022-09-12T21:13:59.614Z,100278.28
2022-09-12T21:16:28.022Z,100278.34
2022-09-12T21:18:57.274Z,100278.13
2022-09-12T21:21:26.080Z,100280.16
2022-09-12T21:23:55.448Z,100282.34
2022-09-12T21:26:23.575Z,100284.97
2022-09-12T21:28:51.846Z,100276.94
2022-09-12T21:31:21.477Z,100280.22
2022-09-12T21:33:50.222Z,100281.59
2022-09-12T21:36:19.111Z,100277.44
2022-09-12T21:38:48.696Z,100289.75
2022-09-12T21:41:18.441Z,100278.56
2022-09-12T21:43:46.714Z,100280.22
2022-09-12T21:46:14.862Z,100278.06
2022-09-12T21:48:45.469Z,100274.22
2022-09-12T21:51:13.726Z,100284.31
2022-09-12T21:53:41.887Z,100260.44
2022-09-12T21:56:10.847Z,100278.75
2022-09-12T21:58:40.090Z,100269.88
2022-09-12T22:01:10.503Z,100273.84
2022-09-12T22:03:38.681Z,100264.00
2022-09-12T22:06:08.614Z,100263.03
2022-09-12T22:08:38.925Z,100262.03
2022-09-12T22:11:09.811Z,100256.22
2022-09-12T22:13:39.354Z,100253.97
2022-09-12T22:16:08.003Z,100253.44
2022-09-12T22:18:37.593Z,100253.50
2022-09-12T22:21:09.166Z,100246.28
2022-09-12T22:23:55.054Z,100252.13
2022-09-12T22:26:23.282Z,100255.03
2022-09-12T22:28:51.748Z,100252.56
2022-09-12T22:31:20.453Z,100241.91
2022-09-12T22:33:48.868Z,100248.59
2022-09-12T22:36:18.469Z,100254.78
2022-09-12T22:38:46.829Z,100245.91
2022-09-12T22:41:15.090Z,100244.81
2022-09-12T22:43:43.200Z,100247.94
2022-09-12T22:46:13.519Z,100247.31
2022-09-12T22:48:42.049Z,100252.06
2022-09-12T22:51:10.381Z,100249.81
2022-09-12T22:53:39.971Z,100247.59
2022-09-12T22:56:08.624Z,100243.25
2022-09-12T22:58:37.983Z,100244.31
2022-09-12T23:01:07.345Z,100246.19
2022-09-12T23:03:36.482Z,100235.31
2022-09-12T23:06:05.666Z,100233.66
2022-09-12T23:08:36.025Z,100233.66
2022-09-12T23:11:09.422Z,100235.94
2022-09-12T23:13:37.917Z,100228.69
2022-09-12T23:16:08.045Z,100236.53
2022-09-12T23:18:37.134Z,100233.66
2022-09-12T23:21:07.141Z,100237.59
2022-09-12T23:23:36.499Z,100232.38
2022-09-12T23:26:12.278Z,100234.66
2022-09-12T23:28:40.917Z,100232.75
2022-09-12T23:31:10.195Z,100232.97
2022-09-12T23:33:38.591Z,100225.97
2022-09-12T23:36:11.484Z,100234.03
2022-09-12T23:38:39.762Z,100235.47
2022-09-12T23:41:09.893Z,100231.31
2022-09-12T23:43:38.408Z,100218.81
2022-09-12T23:46:08.326Z,100217.69
2022-09-12T23:48:36.628Z,100213.50
2022-09-12T23:51:07.392Z,100223.59
2022-09-12T23:53:35.978Z,100218.31
2022-09-12T23:56:04.633Z,100223.38
2022-09-12T23:58:34.460Z,100221.09
